This is the latest recevied weather packets stored in our database for station/object N4OOJ-13. If no packets are shown the sender has not sent any weather packets the latest 1 day(s).
| Time | Temp. | Humidity | Pressure | Rain* | Wind** | Luminosity | Snow |
|---|---|---|---|---|---|---|---|
| 1778030422 | 17.22° C | 82% | 1018 hPa | 0 mm | 0 m/s | - | - |
| 1778029817 | 17.78° C | 80% | 1018 hPa | 0 mm | 0.45 m/s, 87° | - | - |
| 1778029218 | 18.33° C | 79% | 1018.1 hPa | 0 mm | 0.89 m/s, 88° | - | - |
| 1778027426 | 19.44° C | 73% | 1017.9 hPa | 0 mm | 0.89 m/s, 94° | - | - |
| 1778026825 | 20° C | 71% | 1017.9 hPa | 0 mm | 0.89 m/s, 91° | - | - |
| 1778026226 | 20.56° C | 70% | 1017.9 hPa | 0 mm | 0.89 m/s, 107° | - | - |
| 1778025620 | 21.11° C | 68% | 1017.9 hPa | 0 mm | 0.45 m/s, 223° | - | - |
| 1778025020 | 21.67° C | 65% | 1017.9 hPa | 0 mm | 0.89 m/s, 144° | - | - |
| 1778024427 | 22.22° C | 62% | 1017.9 hPa | 0 mm | 0.45 m/s, 268° | - | - |
| 1778023820 | 23.33° C | 59% | 1017.5 hPa | 0 mm | 1.34 m/s, 227° | - | - |
| 1778023221 | 25° C | 55% | 1017.6 hPa | 0 mm | 1.34 m/s, 325° | - | - |
| 1778022620 | 25° C | 53% | 1017.5 hPa | 0 mm | 0.89 m/s, 209° | - | - |
| 1778022020 | 25.56° C | 53% | 1017.5 hPa | 0 mm | 1.34 m/s, 215° | - | - |
| 1778021432 | 25° C | 52% | 1017.6 hPa | 0 mm | 1.34 m/s, 118° | - | - |
| 1778020827 | 26.11° C | 51% | 1017.6 hPa | 0 mm | 1.34 m/s, 102° | - | - |
| 1778020232 | 26.11° C | 51% | 1017.5 hPa | 0 mm | 1.79 m/s, 118° | - | - |
| 1778019628 | 26.67° C | 49% | 1017.5 hPa | 0 mm | 1.34 m/s, 120° | - | - |
| 1778019028 | 26.67° C | 48% | 1017.7 hPa | 0 mm | 1.34 m/s, 64° | - | - |
| 1778018429 | 26.11° C | 48% | 1017.6 hPa | 0 mm | 1.79 m/s, 72° | - | - |
| 1778017824 | 26.11° C | 49% | 1017.5 hPa | 0 mm | 1.79 m/s, 102° | - | - |
| 1778017218 | 26.67° C | 48% | 1017.7 hPa | 0 mm | 1.79 m/s, 110° | - | - |
| 1778016642 | 26.11° C | 50% | 1017.6 hPa | 0 mm | 0.89 m/s, 176° | - | - |
| 1778016026 | 26.67° C | 49% | 1017.7 hPa | 0 mm | 2.24 m/s, 64° | - | - |
| 1778015416 | 26.67° C | 48% | 1017.7 hPa | 0 mm | 1.34 m/s, 312° | - | - |
| 1778014833 | 27.78° C | 46% | 1017.7 hPa | 0 mm | 1.79 m/s, 280° | - | - |
* Rain latest hour (hover to see other rain measurements)
** Current wind speed in m/s (hover to see current wind gust speed)